Time;durP1;ratioP1;P1;durP2;ratioP2;P2;SDS_P1;SDS_P2;PMS_P1;PMS_P2;Temp;Humidity;BMP_temperature;BMP_pressure;BME280_temperature;BME280_humidity;BME280_pressure;Samples;Min_cycle;Max_cycle;Signal;HPM_P1;HPM_P2
2022/04/23 00:00:21;;;;;;;23.27;19.45;;;;;;;9.20;73.99;100266.00;4979693;28;20045;-92
2022/04/23 00:02:46;;;;;;;23.75;19.35;;;;;;;9.19;74.00;100264.25;4986039;28;20030;-92
2022/04/23 00:05:11;;;;;;;23.73;19.67;;;;;;;9.17;74.30;100264.34;4975934;28;20130;-92
2022/04/23 00:07:37;;;;;;;25.77;19.45;;;;;;;9.15;74.35;100257.41;4984767;28;20039;-94
2022/04/23 00:10:02;;;;;;;21.17;18.88;;;;;;;9.09;74.47;100261.25;4992460;28;20088;-93
2022/04/23 00:12:27;;;;;;;25.17;20.40;;;;;;;9.03;74.90;100256.28;4989161;28;20096;-93
2022/04/23 00:14:53;;;;;;;24.50;19.38;;;;;;;9.04;74.79;100260.66;4984792;28;20022;-93
2022/04/23 00:17:19;;;;;;;24.48;19.88;;;;;;;9.03;74.98;100260.72;4972578;28;20038;-92
2022/04/23 00:19:46;;;;;;;25.35;20.73;;;;;;;9.05;75.24;100269.47;4984071;28;20069;-91
2022/04/23 00:22:12;;;;;;;27.70;20.23;;;;;;;9.05;75.37;100266.81;4988054;28;20025;-92
2022/04/23 00:24:37;;;;;;;25.05;20.42;;;;;;;8.96;75.48;100261.06;4984157;28;20026;-92
2022/04/23 00:27:03;;;;;;;25.33;20.73;;;;;;;8.97;76.07;100269.88;4982795;28;20038;-91
2022/04/23 00:29:29;;;;;;;25.55;20.48;;;;;;;8.95;75.96;100274.41;4968727;28;20037;-92
2022/04/23 00:31:55;;;;;;;22.40;19.55;;;;;;;8.90;75.99;100263.16;4986043;28;20031;-91
2022/04/23 00:34:20;;;;;;;27.05;21.42;;;;;;;8.89;76.55;100272.94;4984997;28;20411;-92
2022/04/23 00:36:46;;;;;;;27.73;21.23;;;;;;;8.87;76.49;100269.50;4986891;28;20042;-93
2022/04/23 00:39:11;;;;;;;25.35;21.65;;;;;;;8.83;76.58;100259.16;4991438;28;20018;-92
2022/04/23 00:41:51;;;;;;;26.45;20.70;;;;;;;8.76;76.66;100253.28;4985382;28;20387;-93
2022/04/23 00:44:17;;;;;;;27.73;22.10;;;;;;;8.80;76.88;100267.25;4974328;28;20023;-93
2022/04/23 00:46:44;;;;;;;27.00;20.00;;;;;;;8.76;76.84;100269.22;4965844;28;20045;-92
2022/04/23 00:49:09;;;;;;;26.23;21.55;;;;;;;8.74;77.29;100271.09;4986956;28;20022;-93
2022/04/23 00:51:36;;;;;;;27.67;21.15;;;;;;;8.67;77.73;100251.97;4975263;28;20046;-92
2022/04/23 00:54:05;;;;;;;27.10;21.27;;;;;;;8.70;77.61;100267.75;4983080;28;21822;-93
2022/04/23 00:56:31;;;;;;;27.15;22.65;;;;;;;8.68;78.03;100271.41;4987433;28;20629;-93
2022/04/23 00:58:57;;;;;;;26.15;22.02;;;;;;;8.67;78.26;100262.59;4988383;28;20050;-93
2022/04/23 01:01:23;;;;;;;27.10;22.00;;;;;;;8.62;77.95;100256.69;4969608;28;20030;-94
2022/04/23 01:03:50;;;;;;;25.75;20.65;;;;;;;8.58;78.29;100248.97;4979336;28;20027;-93
2022/04/23 01:06:16;;;;;;;29.35;22.48;;;;;;;8.59;78.56;100253.31;4982132;28;20038;-93
2022/04/23 01:08:42;;;;;;;26.85;22.25;;;;;;;8.60;78.83;100261.19;4984444;28;20038;-93
2022/04/23 01:11:07;;;;;;;27.40;21.52;;;;;;;8.60;78.41;100261.19;4983780;28;20046;-94
2022/04/23 01:13:33;;;;;;;26.38;22.02;;;;;;;8.58;78.59;100259.56;4984235;28;20026;-93
2022/04/23 01:16:02;;;;;;;30.95;22.70;;;;;;;8.55;78.97;100255.28;4959645;28;20045;-93
2022/04/23 01:18:29;;;;;;;29.30;23.08;;;;;;;8.49;79.21;100252.94;4982066;28;20028;-93
2022/04/23 01:20:56;;;;;;;26.63;22.70;;;;;;;8.50;78.95;100259.97;4981509;28;20441;-93
2022/04/23 01:23:21;;;;;;;30.08;21.80;;;;;;;8.48;79.27;100257.41;4984618;28;20027;-93
2022/04/23 01:25:49;;;;;;;27.45;22.23;;;;;;;8.48;79.40;100259.16;4986972;28;20263;-93
2022/04/23 01:28:16;;;;;;;29.10;23.30;;;;;;;8.48;80.03;100267.13;4984396;28;20089;-93
2022/04/23 01:30:42;;;;;;;28.40;22.23;;;;;;;8.47;79.98;100266.25;4978730;28;20045;-93
2022/04/23 01:33:07;;;;;;;26.80;22.30;;;;;;;8.47;80.18;100263.63;4980697;28;20031;-93
2022/04/23 01:35:32;;;;;;;28.50;23.00;;;;;;;8.47;80.03;100260.97;4985921;28;20473;-92
2022/04/23 01:37:57;;;;;;;29.55;22.27;;;;;;;8.45;79.68;100262.84;4985633;28;20080;-94
2022/04/23 01:40:23;;;;;;;31.20;23.67;;;;;;;8.46;79.99;100267.22;4980313;28;20053;-93
2022/04/23 01:42:48;;;;;;;30.58;23.27;;;;;;;8.44;80.17;100269.09;4970025;28;20058;-94
2022/04/23 01:45:13;;;;;;;30.38;23.95;;;;;;;8.43;80.14;100256.75;4985769;28;20035;-93
2022/04/23 01:47:38;;;;;;;28.98;23.60;;;;;;;8.46;80.50;100269.88;4965587;28;20026;-94
2022/04/23 01:50:04;;;;;;;27.05;22.92;;;;;;;8.43;80.27;100270.00;4980171;28;20026;-93
2022/04/23 01:52:29;;;;;;;29.90;23.33;;;;;;;8.42;80.51;100259.50;4959575;28;20046;-93
2022/04/23 01:54:55;;;;;;;31.58;23.98;;;;;;;8.44;80.76;100273.50;4979719;28;20026;-93
2022/04/23 01:57:20;;;;;;;31.58;24.42;;;;;;;8.43;80.28;100267.34;4990146;28;20033;-92
2022/04/23 01:59:45;;;;;;;30.13;23.40;;;;;;;8.44;80.31;100282.34;4983690;28;20074;-94
2022/04/23 02:02:10;;;;;;;29.70;24.42;;;;;;;8.42;80.79;100284.22;4976869;28;20464;-93
2022/04/23 02:04:36;;;;;;;29.90;23.73;;;;;;;8.45;80.69;100277.91;4976442;28;20066;-93
2022/04/23 02:07:01;;;;;;;30.23;24.67;;;;;;;8.45;80.87;100284.06;4976831;28;20124;-93
2022/04/23 02:09:26;;;;;;;30.90;25.02;;;;;;;8.46;80.65;100279.63;4980844;28;20034;-93
2022/04/23 02:11:52;;;;;;;32.75;25.27;;;;;;;8.46;81.06;100264.56;4988881;28;20042;-92
2022/04/23 02:14:17;;;;;;;29.92;24.50;;;;;;;8.45;80.96;100277.91;4979334;28;20038;-93
2022/04/23 02:16:43;;;;;;;31.80;24.60;;;;;;;8.44;81.16;100276.16;4974489;28;20034;-93
2022/04/23 02:19:08;;;;;;;33.78;26.13;;;;;;;8.42;81.26;100264.81;4982596;28;20070;-93
2022/04/23 02:21:33;;;;;;;31.30;24.90;;;;;;;8.39;80.98;100272.91;4986495;28;20030;-93
2022/04/23 02:24:00;;;;;;;33.60;25.30;;;;;;;8.36;81.06;100275.66;4979758;28;20031;-92
2022/04/23 02:26:25;;;;;;;34.45;24.92;;;;;;;8.35;81.65;100269.50;4980824;28;20097;-94
2022/04/23 02:28:50;;;;;;;32.38;25.75;;;;;;;8.30;81.70;100260.09;4984174;28;20475;-93
2022/04/23 02:31:16;;;;;;;35.88;26.42;;;;;;;8.30;82.26;100274.19;4975123;28;20058;-92
2022/04/23 02:33:41;;;;;;;29.38;25.20;;;;;;;8.31;81.71;100272.41;4979989;28;20500;-92
2022/04/23 02:36:08;;;;;;;34.58;27.60;;;;;;;8.31;82.21;100265.28;4989461;28;20034;-92
2022/04/23 02:38:34;;;;;;;37.13;28.38;;;;;;;8.29;82.54;100266.34;4992714;28;20026;-93
2022/04/23 02:40:59;;;;;;;32.70;26.73;;;;;;;8.29;82.37;100267.19;4987190;28;20034;-93
2022/04/23 02:43:24;;;;;;;36.20;28.33;;;;;;;8.28;82.34;100260.19;4973938;28;20035;-94
2022/04/23 02:45:49;;;;;;;34.15;27.67;;;;;;;8.27;82.70;100260.22;4988918;28;20080;-95
2022/04/23 02:48:16;;;;;;;37.13;29.02;;;;;;;8.27;82.80;100263.72;4985779;28;20596;-93
2022/04/23 02:50:41;;;;;;;36.50;26.85;;;;;;;8.28;82.29;100264.59;4988972;28;20030;-94
2022/04/23 02:53:08;;;;;;;41.20;29.15;;;;;;;8.25;83.00;100265.63;4966869;28;20117;-93
2022/04/23 02:55:35;;;;;;;38.97;29.35;;;;;;;8.23;83.40;100262.19;4990622;28;20035;-92
2022/04/23 02:58:02;;;;;;;37.15;30.08;;;;;;;8.23;83.36;100263.06;4987446;28;20117;-93
2022/04/23 03:00:28;;;;;;;38.35;28.88;;;;;;;8.18;83.38;100251.81;4990445;28;20022;-93
2022/04/23 03:02:54;;;;;;;37.17;27.98;;;;;;;8.17;83.53;100251.91;4985732;28;20030;-92
2022/04/23 03:05:20;;;;;;;38.90;28.50;;;;;;;8.11;83.65;100247.78;4982204;28;20068;-94
2022/04/23 03:07:46;;;;;;;39.17;28.95;;;;;;;8.13;83.39;100258.28;4987704;28;20068;-93
2022/04/23 03:10:13;;;;;;;38.58;30.02;;;;;;;8.13;84.16;100255.63;4994907;28;20030;-93
2022/04/23 03:12:39;;;;;;;40.63;30.30;;;;;;;8.10;84.61;100251.34;4961833;28;20061;-93
2022/04/23 03:15:06;;;;;;;41.53;30.92;;;;;;;8.12;84.83;100257.44;4985331;28;20034;-94
2022/04/23 03:17:31;;;;;;;40.83;29.83;;;;;;;8.07;84.74;100256.81;4991161;28;20038;-94
2022/04/23 03:19:58;;;;;;;41.35;31.33;;;;;;;8.07;85.29;100255.91;4978620;28;20038;-93
2022/04/23 03:22:23;;;;;;;42.63;31.33;;;;;;;8.03;85.46;100254.38;4972276;28;20037;-93
2022/04/23 03:24:48;;;;;;;43.80;32.42;;;;;;;8.07;85.25;100255.91;4985805;28;20027;-92
2022/04/23 03:27:14;;;;;;;42.45;32.63;;;;;;;8.00;85.54;100252.75;4988580;28;20054;-93
2022/04/23 03:29:39;;;;;;;45.13;33.47;;;;;;;7.98;85.56;100252.81;4990086;28;20041;-93
2022/04/23 03:32:06;;;;;;;44.35;32.90;;;;;;;7.98;85.86;100249.28;4991786;28;20054;-92
2022/04/23 03:34:31;;;;;;;43.40;33.40;;;;;;;7.96;86.07;100238.78;4976585;28;20026;-93
2022/04/23 03:36:57;;;;;;;41.80;31.88;;;;;;;7.96;85.90;100243.22;4994425;28;20514;-94
2022/04/23 03:39:22;;;;;;;47.47;36.30;;;;;;;7.94;86.34;100240.66;4997097;28;20026;-92
2022/04/23 03:41:47;;;;;;;43.53;33.75;;;;;;;7.96;86.06;100246.72;4995372;28;20038;-93
2022/04/23 03:44:12;;;;;;;45.75;33.90;;;;;;;7.94;86.36;100245.06;4986756;28;20070;-92
2022/04/23 03:46:38;;;;;;;46.70;34.38;;;;;;;7.93;86.60;100249.53;4991498;28;20049;-93
2022/04/23 03:49:03;;;;;;;48.58;34.03;;;;;;;7.89;86.19;100245.31;4992282;28;20468;-93
2022/04/23 03:51:28;;;;;;;47.45;34.92;;;;;;;7.93;86.44;100243.38;4988534;28;20050;-93
2022/04/23 03:53:53;;;;;;;47.17;33.70;;;;;;;7.88;86.39;100240.94;4976914;28;20039;-93
2022/04/23 03:56:19;;;;;;;46.20;36.15;;;;;;;7.91;86.66;100240.81;4985951;28;20022;-95
2022/04/23 03:58:44;;;;;;;48.03;36.20;;;;;;;7.88;86.75;100227.69;4988947;28;20036;-93
2022/04/23 04:01:10;;;;;;;48.45;34.80;;;;;;;7.88;86.55;100226.84;4977669;28;20110;-93
2022/04/23 04:03:35;;;;;;;52.53;36.22;;;;;;;7.89;87.11;100234.69;4982330;28;20058;-93
2022/04/23 04:06:00;;;;;;;49.33;36.17;;;;;;;7.88;87.18;100229.50;4968496;28;20041;-92
2022/04/23 04:08:26;;;;;;;49.88;36.00;;;;;;;7.86;87.43;100228.69;4987628;28;20027;-92
2022/04/23 04:10:51;;;;;;;49.88;35.58;;;;;;;7.82;87.37;100219.22;4987646;28;20089;-92
2022/04/23 04:13:16;;;;;;;47.50;34.03;;;;;;;7.82;87.17;100227.16;4979575;28;20031;-92
2022/04/23 04:15:45;;;;;;;45.28;34.35;;;;;;;7.73;87.52;100224.03;4985025;28;20018;-92
2022/04/23 04:18:11;;;;;;;48.95;35.75;;;;;;;7.78;87.48;100223.81;4991610;28;20026;-91
2022/04/23 04:20:39;;;;;;;43.90;32.25;;;;;;;7.77;87.69;100222.06;4989465;28;20074;-92
2022/04/23 04:23:05;;;;;;;46.80;34.38;;;;;;;7.76;87.63;100228.28;4984769;28;20330;-93
2022/04/23 04:25:30;;;;;;;49.55;35.90;;;;;;;7.77;87.91;100227.34;4971620;28;20214;-92
2022/04/23 04:27:55;;;;;;;48.25;34.78;;;;;;;7.77;87.97;100223.84;4979874;28;20133;-92
2022/04/23 04:30:21;;;;;;;45.10;34.03;;;;;;;7.69;88.26;100206.56;4982086;28;20437;-93
2022/04/23 04:32:46;;;;;;;48.28;34.50;;;;;;;7.74;87.96;100233.69;4981041;28;20035;-91
2022/04/23 04:35:11;;;;;;;50.72;35.90;;;;;;;7.71;88.10;100220.56;4987894;28;20037;-91
2022/04/23 04:37:37;;;;;;;51.67;35.83;;;;;;;7.77;88.17;100221.22;4986743;28;20141;-94
2022/04/23 04:40:05;;;;;;;49.22;34.33;;;;;;;7.76;88.12;100220.34;4988695;28;20042;-92
2022/04/23 04:42:30;;;;;;;49.22;34.50;;;;;;;7.75;87.97;100218.63;4977396;28;20043;-93
2022/04/23 04:44:55;;;;;;;49.47;35.50;;;;;;;7.71;87.74;100217.94;4982347;28;20030;-92
2022/04/23 04:47:21;;;;;;;47.40;34.42;;;;;;;7.81;88.08;100220.13;4987621;28;20031;-91
2022/04/23 04:49:46;;;;;;;50.97;35.85;;;;;;;7.81;88.18;100228.91;4990345;28;20364;-93
2022/04/23 04:52:11;;;;;;;47.42;35.10;;;;;;;7.83;88.09;100229.72;4971043;28;20045;-93
2022/04/23 04:54:37;;;;;;;47.10;34.42;;;;;;;7.83;88.31;100228.88;4984117;28;20035;-92
2022/04/23 04:57:03;;;;;;;45.25;33.80;;;;;;;7.78;88.18;100226.44;4986065;28;20056;-93
2022/04/23 04:59:32;;;;;;;49.38;34.72;;;;;;;7.83;88.70;100232.38;4967406;28;20033;-91
2022/04/23 05:01:59;;;;;;;47.55;34.13;;;;;;;7.83;88.34;100232.38;4979525;28;20053;-92
2022/04/23 05:04:24;;;;;;;49.38;35.30;;;;;;;7.84;88.63;100228.78;4983351;28;20030;-92
2022/04/23 05:06:49;;;;;;;47.90;34.05;;;;;;;7.91;88.57;100238.16;4981395;28;20111;-91
2022/04/23 05:09:15;;;;;;;51.72;34.08;;;;;;;7.93;88.56;100240.72;4989848;28;20038;-92
2022/04/23 05:11:40;;;;;;;47.97;34.38;;;;;;;7.98;88.90;100244.00;4968943;28;20030;-92
2022/04/23 05:14:05;;;;;;;45.50;33.70;;;;;;;8.03;88.58;100238.50;4986201;28;20054;-92
2022/04/23 05:16:31;;;;;;;45.22;33.30;;;;;;;8.04;88.49;100238.41;4979067;28;20369;-92
2022/04/23 05:18:56;;;;;;;47.72;35.55;;;;;;;8.06;88.36;100238.31;4983731;28;20031;-91
2022/04/23 05:21:21;;;;;;;48.90;34.55;;;;;;;8.11;88.14;100236.28;4984743;28;20482;-92
2022/04/23 05:23:46;;;;;;;49.50;34.50;;;;;;;8.10;88.15;100235.44;4975969;28;20116;-93
2022/04/23 05:26:12;;;;;;;45.45;33.05;;;;;;;8.17;87.89;100230.69;4979012;28;20084;-91
2022/04/23 05:28:39;;;;;;;44.20;33.25;;;;;;;8.25;87.71;100231.16;4983613;28;20069;-93
2022/04/23 05:31:04;;;;;;;48.22;34.80;;;;;;;8.29;87.50;100231.88;4981205;28;20037;-92
2022/04/23 05:33:30;;;;;;;43.63;31.52;;;;;;;8.36;87.22;100235.91;4986675;28;20023;-95
2022/04/23 05:35:55;;;;;;;44.53;32.90;;;;;;;8.46;86.92;100237.19;4987387;28;20034;-93
2022/04/23 05:38:22;;;;;;;44.83;33.45;;;;;;;8.54;87.05;100236.78;4990168;28;20022;-91
2022/04/23 05:40:48;;;;;;;44.97;33.22;;;;;;;8.66;86.36;100229.03;4976188;28;20393;-90
2022/04/23 05:43:13;;;;;;;45.05;32.38;;;;;;;8.79;85.88;100231.06;4985157;28;20035;-90
2022/04/23 05:45:38;;;;;;;44.08;31.52;;;;;;;8.84;85.51;100226.34;4986534;28;20031;-93
2022/04/23 05:48:04;;;;;;;41.35;31.35;;;;;;;8.95;85.00;100224.00;4988383;28;20390;-89
2022/04/23 05:50:30;;;;;;;40.42;31.35;;;;;;;9.10;84.64;100227.59;4978683;28;20440;-90
2022/04/23 05:52:55;;;;;;;43.10;31.73;;;;;;;9.22;83.62;100232.22;4978403;28;20044;-91
2022/04/23 05:55:21;;;;;;;41.83;31.40;;;;;;;9.32;83.05;100229.91;4986626;28;20030;-91
2022/04/23 05:57:47;;;;;;;41.95;30.98;;;;;;;9.38;82.98;100216.31;4981057;28;20026;-90
2022/04/23 06:00:13;;;;;;;40.40;30.25;;;;;;;9.55;82.13;100226.84;4987248;28;20079;-93
2022/04/23 06:02:38;;;;;;;40.65;30.08;;;;;;;9.65;81.65;100224.50;4968648;28;20111;-90
2022/04/23 06:05:04;;;;;;;41.58;30.90;;;;;;;9.78;81.11;100230.88;4987418;28;20431;-90
2022/04/23 06:07:30;;;;;;;39.25;30.25;;;;;;;9.87;80.16;100222.34;4986149;28;20081;-90
2022/04/23 06:09:56;;;;;;;41.72;31.15;;;;;;;10.02;79.79;100233.88;4977303;28;20023;-92
2022/04/23 06:12:22;;;;;;;40.30;30.50;;;;;;;10.14;79.39;100232.31;4982203;28;20033;-90
2022/04/23 06:14:49;;;;;;;35.92;28.75;;;;;;;10.23;78.85;100226.44;4982028;28;20046;-90
2022/04/23 06:17:14;;;;;;;38.65;30.45;;;;;;;10.33;78.31;100226.81;4988142;28;20037;-90
2022/04/23 06:19:40;;;;;;;38.83;30.45;;;;;;;10.45;77.88;100220.75;4969203;28;20030;-89
2022/04/23 06:22:06;;;;;;;37.38;29.98;;;;;;;10.57;76.83;100230.63;4977357;28;20098;-91
2022/04/23 06:24:32;;;;;;;36.45;28.95;;;;;;;10.66;76.63;100230.09;4988671;28;20049;-90
2022/04/23 06:26:58;;;;;;;38.42;29.25;;;;;;;10.78;76.42;100217.81;4988888;28;20156;-91
2022/04/23 06:29:23;;;;;;;37.42;30.15;;;;;;;10.89;75.24;100228.69;4987571;28;20026;-90
2022/04/23 06:31:48;;;;;;;37.22;28.30;;;;;;;11.03;74.91;100226.97;4980072;28;20033;-90
2022/04/23 06:34:13;;;;;;;35.63;28.20;;;;;;;11.15;74.68;100235.03;4984458;28;20104;-92
2022/04/23 06:36:40;;;;;;;38.85;29.17;;;;;;;11.27;73.51;100235.22;4959660;28;20042;-93
2022/04/23 06:39:05;;;;;;;36.33;29.10;;;;;;;11.37;72.99;100231.88;4997882;28;20025;-91
2022/04/23 06:41:30;;;;;;;37.05;28.00;;;;;;;11.51;72.50;100225.66;4985056;28;20535;-90
2022/04/23 06:43:56;;;;;;;35.63;27.27;;;;;;;11.64;72.11;100233.72;4968927;28;20022;-92
2022/04/23 06:46:21;;;;;;;34.22;27.90;;;;;;;11.67;71.98;100228.19;4962700;28;20041;-91
2022/04/23 06:48:47;;;;;;;34.42;26.75;;;;;;;11.83;71.78;100230.72;4987772;28;20510;-92
2022/04/23 06:51:12;;;;;;;34.15;26.00;;;;;;;12.01;70.68;100226.84;4987266;28;20105;-92
2022/04/23 06:53:37;;;;;;;31.17;26.83;;;;;;;12.13;69.95;100223.38;4989656;28;20030;-92
2022/04/23 06:56:03;;;;;;;33.58;27.33;;;;;;;12.24;68.79;100219.09;4989429;28;20023;-90
2022/04/23 06:58:29;;;;;;;33.33;25.88;;;;;;;12.52;69.17;100221.59;4988364;28;20037;-91
2022/04/23 07:00:55;;;;;;;33.17;27.42;;;;;;;12.64;67.74;100211.91;4980822;28;20358;-91
2022/04/23 07:03:20;;;;;;;31.48;26.13;;;;;;;12.79;67.39;100205.50;4982385;28;20038;-91
2022/04/23 07:05:46;;;;;;;34.63;27.33;;;;;;;12.88;66.31;100215.53;4967531;28;20049;-91
2022/04/23 07:08:12;;;;;;;30.67;25.95;;;;;;;12.96;65.99;100217.66;4977574;28;20042;-91
2022/04/23 07:10:37;;;;;;;30.63;24.65;;;;;;;13.22;65.56;100215.81;4996223;28;20030;-90
2022/04/23 07:13:03;;;;;;;34.30;25.67;;;;;;;13.46;64.45;100215.91;4985427;28;20023;-92
2022/04/23 07:15:29;;;;;;;31.20;25.77;;;;;;;13.73;63.38;100215.66;4988297;28;20473;-92
2022/04/23 07:17:55;;;;;;;28.92;24.88;;;;;;;13.97;62.16;100213.00;4988697;28;20029;-92
2022/04/23 07:20:21;;;;;;;29.65;25.23;;;;;;;14.16;62.10;100207.94;4986184;28;20034;-92
2022/04/23 07:25:33;;;;;;;27.20;23.75;;;;;;;14.64;59.02;100207.03;4982130;28;20045;-95
2022/04/23 07:27:59;;;;;;;30.67;24.80;;;;;;;14.82;58.87;100210.94;4986856;28;20034;-92
2022/04/23 07:30:25;;;;;;;28.92;24.98;;;;;;;14.76;58.29;100205.22;4979902;28;20456;-92
2022/04/23 07:32:53;;;;;;;30.95;24.15;;;;;;;14.92;57.87;100203.88;4985960;28;20116;-94
2022/04/23 07:38:12;;;;;;;29.33;24.40;;;;;;;15.20;57.15;100191.78;4992982;28;20173;-93
2022/04/23 07:40:41;;;;;;;27.23;23.58;;;;;;;15.45;55.96;100187.97;4988680;28;20387;-92
2022/04/23 07:43:10;;;;;;;26.83;23.35;;;;;;;15.72;55.13;100188.53;4985156;28;20162;-93
2022/04/23 07:45:38;;;;;;;29.27;23.95;;;;;;;15.96;53.83;100193.72;4989704;28;20030;-93
2022/04/23 07:48:05;;;;;;;26.58;23.40;;;;;;;16.22;53.45;100191.50;4994113;28;20115;-92
2022/04/23 07:50:32;;;;;;;26.70;23.20;;;;;;;16.35;52.15;100192.19;4974969;28;20194;-92
2022/04/23 07:52:57;;;;;;;27.80;23.55;;;;;;;16.42;51.59;100196.03;4989356;28;20030;-91
2022/04/23 07:55:23;;;;;;;28.40;23.65;;;;;;;16.41;51.53;100183.59;4994801;28;20030;-92
2022/04/23 07:57:48;;;;;;;24.90;22.25;;;;;;;16.77;51.14;100192.19;4992121;28;20022;-93
2022/04/23 08:00:14;;;;;;;30.05;23.70;;;;;;;17.08;49.62;100193.03;4992220;28;20472;-93
2022/04/23 08:02:39;;;;;;;24.70;22.05;;;;;;;17.54;49.34;100189.78;4980478;28;20370;-88
2022/04/23 08:05:05;;;;;;;24.35;21.63;;;;;;;17.58;47.89;100198.41;4977670;28;20054;-93
2022/04/23 08:07:30;;;;;;;25.88;22.45;;;;;;;17.53;47.72;100189.91;4985063;28;20501;-92
2022/04/23 08:09:55;;;;;;;25.17;22.58;;;;;;;17.40;47.63;100176.72;4996607;28;20491;-91
2022/04/23 08:12:21;;;;;;;24.63;22.02;;;;;;;17.80;47.50;100171.28;4983826;28;20202;-92
2022/04/23 08:14:46;;;;;;;24.48;21.30;;;;;;;18.06;46.42;100178.81;4977529;28;20045;-93
2022/04/23 08:17:11;;;;;;;25.45;21.67;;;;;;;18.24;46.19;100187.03;4986960;28;20053;-92
2022/04/23 08:19:37;;;;;;;24.63;21.27;;;;;;;18.37;45.34;100174.94;4962697;28;20576;-90
2022/04/23 08:22:03;;;;;;;23.95;21.27;;;;;;;18.67;44.80;100175.72;4981465;28;20053;-91
2022/04/23 08:24:31;;;;;;;22.33;19.85;;;;;;;19.27;43.24;100178.94;4982366;28;20027;-95
2022/04/23 08:26:56;;;;;;;22.55;20.13;;;;;;;19.80;42.49;100170.06;4984069;28;20149;-93
2022/04/23 08:32:05;;;;;;;22.42;20.02;;;;;;;19.99;42.20;100185.28;4981099;28;20085;-94
2022/04/23 08:34:31;;;;;;;23.75;20.88;;;;;;;20.08;40.89;100175.41;4990645;28;20030;-93
2022/04/23 08:36:57;;;;;;;23.05;20.50;;;;;;;20.28;40.97;100167.97;4990115;28;20026;-94
2022/04/23 08:39:22;;;;;;;23.10;20.27;;;;;;;20.88;39.88;100170.75;4988746;28;20027;-93
2022/04/23 08:41:48;;;;;;;22.88;20.42;;;;;;;20.87;39.31;100167.22;4986982;28;20038;-93
2022/04/23 08:44:14;;;;;;;23.17;20.65;;;;;;;20.60;39.19;100167.38;4982234;28;20061;-91
2022/04/23 08:46:40;;;;;;;22.65;20.05;;;;;;;20.50;39.61;100175.59;4990327;28;20030;-94
2022/04/23 08:49:10;;;;;;;23.45;20.98;;;;;;;20.28;39.85;100179.63;4980683;28;20110;-94
2022/04/23 08:51:38;;;;;;;24.75;22.13;;;;;;;19.57;40.95;100179.59;4977393;28;20050;-92
2022/04/23 08:54:07;;;;;;;23.95;21.48;;;;;;;19.58;41.88;100186.69;4989698;28;20022;-93
2022/04/23 08:56:33;;;;;;;24.13;21.63;;;;;;;20.25;40.05;100182.63;4990665;28;20027;-93
2022/04/23 08:58:59;;;;;;;24.52;22.02;;;;;;;20.45;39.68;100186.00;4989919;28;20038;-94
2022/04/23 09:01:25;;;;;;;24.13;21.75;;;;;;;20.33;39.77;100193.53;4985048;28;20031;-92
2022/04/23 09:03:50;;;;;;;24.92;22.30;;;;;;;20.09;40.14;100196.00;4989699;28;20022;-93
2022/04/23 09:06:15;;;;;;;27.63;23.88;;;;;;;19.51;41.51;100185.59;4985769;28;20062;-93
2022/04/23 09:09:13;;;;;;;24.45;21.95;;;;;;;19.20;42.69;100198.56;4990916;28;20088;-94
2022/04/23 09:11:40;;;;;;;26.00;23.20;;;;;;;18.50;43.55;100189.94;4963663;28;20050;-93
2022/04/23 09:14:06;;;;;;;25.63;23.08;;;;;;;18.37;44.04;100195.66;4980586;28;20030;-94
2022/04/23 09:25:10;;;;;;;24.23;21.70;;;;;;;20.34;39.73;100202.47;4983147;28;20499;-93
2022/04/23 09:27:40;;;;;;;23.45;20.70;;;;;;;19.99;40.34;100190.69;4983542;28;20046;-90
2022/04/23 09:30:15;;;;;;;25.52;22.25;;;;;;;20.44;39.64;100180.75;4985023;28;20042;-89
2022/04/23 09:32:56;;;;;;;23.67;21.20;;;;;;;21.88;38.25;100183.50;4978267;28;20026;-92
2022/04/23 09:35:22;;;;;;;23.75;21.10;;;;;;;22.79;34.90;100187.91;4986966;28;20124;-93
2022/04/23 09:38:11;;;;;;;23.65;21.25;;;;;;;21.37;36.84;100184.56;4985152;28;20520;-92
2022/04/23 09:40:33;;;;;;;25.63;21.35;;;;;;;20.92;38.26;100187.53;4980902;28;20428;-91
2022/04/23 09:43:09;;;;;;;23.30;20.95;;;;;;;21.54;38.16;100175.47;4966221;28;20088;-91
2022/04/23 09:45:39;;;;;;;24.63;22.02;;;;;;;22.55;35.37;100179.78;4989275;28;20057;-92
2022/04/23 09:48:04;;;;;;;23.90;20.90;;;;;;;23.14;34.22;100179.50;4989145;28;20033;-92
2022/04/23 09:50:40;;;;;;;24.53;21.90;;;;;;;22.99;35.46;100174.81;4977097;28;20030;-92
2022/04/23 09:53:10;;;;;;;25.15;21.83;;;;;;;23.57;34.02;100156.38;4978185;28;20533;-90
2022/04/23 09:55:36;;;;;;;24.70;21.33;;;;;;;23.87;32.59;100179.16;4981998;28;20044;-91
2022/04/23 09:58:09;;;;;;;22.77;20.50;;;;;;;23.55;33.22;100177.47;4989322;28;20391;-91
2022/04/23 10:00:36;;;;;;;23.58;21.15;;;;;;;23.83;32.77;100178.69;4985506;28;20034;-91
2022/04/23 10:03:06;;;;;;;22.65;20.50;;;;;;;24.28;31.70;100181.53;4976807;28;20030;-89
2022/04/23 10:05:35;;;;;;;23.73;21.33;;;;;;;23.87;31.72;100181.88;4986607;28;20030;-90
2022/04/23 10:08:02;;;;;;;22.85;20.70;;;;;;;23.01;33.41;100175.47;4983809;28;20026;-89
2022/04/23 10:10:33;;;;;;;22.90;20.50;;;;;;;23.85;32.61;100170.34;4987516;28;20148;-90
2022/04/23 10:13:01;;;;;;;22.50;20.35;;;;;;;24.66;31.33;100157.91;4959586;28;20025;-90
2022/04/23 10:15:28;;;;;;;22.42;20.13;;;;;;;24.24;31.99;100164.75;4974274;28;20058;-90
2022/04/23 10:17:56;;;;;;;22.08;19.67;;;;;;;23.00;33.76;100159.38;4988208;28;20054;-89
2022/04/23 10:20:22;;;;;;;22.33;20.10;;;;;;;22.66;34.68;100165.88;4987108;28;20018;-92
2022/04/23 10:23:21;;;;;;;23.58;21.17;;;;;;;24.08;33.23;100160.31;4976701;28;20173;-91
2022/04/23 10:26:00;;;;;;;22.98;20.05;;;;;;;25.61;31.23;100151.66;4957793;28;20041;-91
2022/04/23 10:28:25;;;;;;;22.45;20.05;;;;;;;25.88;30.00;100160.19;4985167;28;20062;-93
2022/04/23 10:31:12;;;;;;;22.38;20.17;;;;;;;26.27;30.12;100162.44;4975395;28;20397;-91
2022/04/23 10:33:43;;;;;;;23.13;20.83;;;;;;;26.75;28.42;100166.19;4987319;28;20092;-92
2022/04/23 10:36:09;;;;;;;21.35;19.35;;;;;;;27.66;27.23;100156.97;4988057;28;20023;-91
2022/04/23 10:38:40;;;;;;;23.02;20.63;;;;;;;28.00;26.85;100159.59;4981074;28;20030;-91
2022/04/23 10:41:07;;;;;;;22.08;19.98;;;;;;;27.79;26.29;100154.31;4963208;28;20494;-92
2022/04/23 10:43:32;;;;;;;21.23;19.05;;;;;;;27.81;26.98;100152.22;4970067;28;20061;-91
2022/04/23 10:46:00;;;;;;;21.23;19.10;;;;;;;28.17;26.69;100165.50;4977174;28;20502;-93
2022/04/23 10:48:27;;;;;;;21.88;19.77;;;;;;;27.94;25.85;100162.34;4986010;28;20022;-95
2022/04/23 10:51:00;;;;;;;20.98;18.83;;;;;;;27.77;26.54;100159.16;4973545;28;20026;-96
2022/04/23 10:53:47;;;;;;;21.10;19.10;;;;;;;27.53;27.09;100149.56;4982252;28;20033;-94
2022/04/23 10:56:15;;;;;;;21.13;19.00;;;;;;;28.44;25.56;100149.97;4975786;28;20027;-93
2022/04/23 10:58:41;;;;;;;20.08;18.15;;;;;;;28.89;25.57;100149.28;4981990;28;20081;-93
2022/04/23 11:01:21;;;;;;;21.35;19.17;;;;;;;29.73;25.58;100151.09;4976973;28;20081;-95
2022/04/23 11:03:55;;;;;;;20.80;18.80;;;;;;;30.28;24.43;100143.13;4975090;28;20026;-91
2022/04/23 11:12:22;;;;;;;23.45;21.23;;;;;;;29.31;24.29;100145.16;4983975;28;20041;-96
2022/04/23 11:14:51;;;;;;;22.77;20.67;;;;;;;29.71;23.91;100131.25;4991858;28;20030;-96
2022/04/23 11:17:47;;;;;;;22.85;20.75;;;;;;;29.83;24.71;100129.50;4974342;28;20110;-96
2022/04/23 11:20:13;;;;;;;27.17;21.02;;;;;;;29.76;23.54;100140.53;4995955;28;20053;-94
2022/04/23 11:22:39;;;;;;;22.65;20.55;;;;;;;29.36;24.03;100139.88;4982890;28;20038;-95
2022/04/23 11:25:06;;;;;;;21.67;19.48;;;;;;;29.27;23.97;100130.22;4978956;28;20043;-93
2022/04/23 11:27:36;;;;;;;21.65;19.48;;;;;;;28.63;24.17;100139.19;4983303;28;20063;-93
2022/04/23 11:30:02;;;;;;;21.30;19.30;;;;;;;27.22;26.41;100147.38;4981415;28;20022;-93
2022/04/23 11:32:33;;;;;;;22.90;20.77;;;;;;;26.85;26.81;100126.78;4987677;28;20034;-92
2022/04/23 11:35:00;;;;;;;22.73;20.63;;;;;;;26.20;27.57;100145.16;4984298;28;20480;-94